Terminal Aerodrome Forecast
Issued by NWS

Home | Current Version | Previous Version | Text Only | Print | Product List | Glossary On
Versions: 1 2 3 4 5 6 7 8 9 10 11 12 13 14 15 16 17 18 19
000
FTUS43 KAPX 270520
TAFMBL
TAF
KMBL 270520Z 2706/2806 10006KT P6SM OVC060
     FM271400 08005KT P6SM SCT100
     FM272000 34005KT P6SM FEW100
     FM280000 00000KT P6SM SCT200
      AMD LTD TO CLD VIS AND WIND=

USA.gov is the U.S. government's official web portal to all federal, state and local government web resources and services.